createdAt,value
2019-03-17T00:00:19.730Z,91.90
2019-03-17T00:02:48.519Z,91.80
2019-03-17T00:05:17.612Z,91.70
2019-03-17T00:07:46.710Z,91.70
2019-03-17T00:10:15.808Z,91.70
2019-03-17T00:12:44.649Z,91.50
2019-03-17T00:15:13.683Z,91.60
2019-03-17T00:17:42.486Z,91.60
2019-03-17T00:20:11.322Z,91.70
2019-03-17T00:22:40.470Z,91.50
2019-03-17T00:25:10.331Z,91.50
2019-03-17T00:27:39.784Z,91.50
2019-03-17T00:30:11.752Z,91.50
2019-03-17T00:32:40.834Z,91.60
2019-03-17T00:35:09.575Z,91.50
2019-03-17T00:37:38.335Z,91.50
2019-03-17T00:40:10.179Z,91.40
2019-03-17T00:42:39.226Z,91.10
2019-03-17T00:45:12.111Z,91.10
2019-03-17T00:47:41.264Z,91.30
2019-03-17T00:50:11.325Z,91.00
2019-03-17T00:52:40.471Z,91.30
2019-03-17T00:55:09.667Z,91.40
2019-03-17T00:57:38.761Z,91.20
2019-03-17T01:00:13.170Z,91.30
2019-03-17T01:02:41.879Z,91.20
2019-03-17T01:05:10.729Z,91.20
2019-03-17T01:07:39.550Z,91.30
2019-03-17T01:10:09.981Z,91.20
2019-03-17T01:12:38.762Z,91.20
2019-03-17T01:15:08.588Z,91.00
2019-03-17T01:17:37.303Z,90.80
2019-03-17T01:20:09.127Z,90.90
2019-03-17T01:22:37.965Z,91.00
2019-03-17T01:25:08.941Z,90.70
2019-03-17T01:27:38.063Z,90.90
2019-03-17T01:30:09.794Z,90.80
2019-03-17T01:32:38.582Z,90.60
2019-03-17T01:35:10.023Z,90.70
2019-03-17T01:37:39.545Z,90.40
2019-03-17T01:40:10.166Z,90.50
2019-03-17T01:42:39.280Z,90.40
2019-03-17T01:45:09.493Z,90.50
2019-03-17T01:47:38.598Z,90.40
2019-03-17T01:50:09.034Z,90.60
2019-03-17T01:52:38.134Z,90.30
2019-03-17T01:55:08.147Z,90.50
2019-03-17T01:57:37.338Z,89.90
2019-03-17T02:00:09.611Z,90.30
2019-03-17T02:02:38.705Z,90.20
2019-03-17T02:05:07.907Z,90.00
2019-03-17T02:07:37.100Z,90.10
2019-03-17T02:10:07.739Z,89.90
2019-03-17T02:12:36.479Z,90.00
2019-03-17T02:15:07.499Z,90.20
2019-03-17T02:17:36.661Z,90.40
2019-03-17T02:20:10.162Z,90.00
2019-03-17T02:22:39.258Z,90.00
2019-03-17T02:25:08.128Z,89.90
2019-03-17T02:27:37.243Z,90.00
2019-03-17T02:30:09.204Z,90.00
2019-03-17T02:32:38.313Z,90.20
2019-03-17T02:35:07.508Z,90.10
2019-03-17T02:37:36.810Z,90.10
2019-03-17T02:40:07.016Z,90.10
2019-03-17T02:42:36.325Z,90.00
2019-03-17T02:45:08.294Z,90.20
2019-03-17T02:47:37.386Z,89.80
2019-03-17T02:50:07.548Z,89.80
2019-03-17T02:52:36.705Z,89.60
2019-03-17T02:55:07.649Z,89.50
2019-03-17T02:57:36.430Z,89.00
2019-03-17T03:00:08.197Z,89.10
2019-03-17T03:02:37.010Z,89.50
2019-03-17T03:05:07.533Z,89.50
2019-03-17T03:07:36.313Z,89.30
2019-03-17T03:10:06.230Z,88.80
2019-03-17T03:12:35.307Z,89.20
2019-03-17T03:15:05.749Z,88.70
2019-03-17T03:17:34.533Z,88.80
2019-03-17T03:20:04.651Z,88.50
2019-03-17T03:22:33.590Z,89.40
2019-03-17T03:25:02.734Z,89.40
2019-03-17T03:27:31.475Z,89.50
2019-03-17T03:30:00.528Z,89.10
2019-03-17T03:32:29.405Z,89.30
2019-03-17T03:34:58.337Z,89.00
2019-03-17T03:37:27.085Z,89.20
2019-03-17T03:39:56.175Z,89.30
2019-03-17T03:42:25.482Z,89.50
2019-03-17T03:44:54.254Z,89.30
2019-03-17T03:47:23.009Z,89.30
2019-03-17T03:49:52.154Z,89.00
2019-03-17T03:52:21.241Z,89.10
2019-03-17T03:54:50.024Z,88.70
2019-03-17T03:57:19.137Z,89.00
2019-03-17T03:59:47.929Z,88.80
2019-03-17T04:02:17.122Z,88.60
2019-03-17T04:04:45.942Z,88.10
2019-03-17T04:07:14.712Z,87.90
2019-03-17T04:09:43.912Z,88.00
2019-03-17T04:12:12.999Z,88.00
2019-03-17T04:14:42.093Z,88.00
2019-03-17T04:17:11.303Z,88.40
2019-03-17T04:19:40.079Z,89.20
2019-03-17T04:22:09.275Z,88.30
2019-03-17T04:24:38.376Z,87.90
2019-03-17T04:27:07.571Z,87.90
2019-03-17T04:29:36.327Z,87.50
2019-03-17T04:32:05.450Z,87.60
2019-03-17T04:34:34.545Z,88.00
2019-03-17T04:37:03.281Z,87.70
2019-03-17T04:39:32.426Z,87.60
2019-03-17T04:42:01.528Z,87.90
2019-03-17T04:44:30.187Z,88.50
2019-03-17T04:46:59.308Z,88.60
2019-03-17T04:49:28.475Z,88.40
2019-03-17T04:51:57.220Z,89.00
2019-03-17T04:54:26.422Z,88.70
2019-03-17T04:56:55.095Z,88.80
2019-03-17T04:59:24.280Z,89.00
2019-03-17T05:01:53.372Z,88.90
2019-03-17T05:04:22.474Z,88.70
2019-03-17T05:06:52.842Z,88.60
2019-03-17T05:09:22.045Z,88.60
2019-03-17T05:11:50.837Z,89.00
2019-03-17T05:14:19.977Z,88.40
2019-03-17T05:16:49.084Z,88.70
2019-03-17T05:19:17.858Z,88.70
2019-03-17T05:21:47.130Z,88.80
2019-03-17T05:24:16.259Z,89.00
2019-03-17T05:26:45.264Z,89.00
2019-03-17T05:29:14.453Z,88.90
2019-03-17T05:31:43.556Z,88.70
2019-03-17T05:34:12.301Z,89.00
2019-03-17T05:36:41.113Z,89.00
2019-03-17T05:39:10.223Z,89.50
2019-03-17T05:41:39.423Z,89.10
2019-03-17T05:44:08.622Z,89.00
2019-03-17T05:46:37.326Z,89.30
2019-03-17T05:49:06.578Z,89.00
2019-03-17T05:51:35.795Z,89.10
2019-03-17T05:54:04.608Z,89.20
2019-03-17T05:56:33.692Z,89.30
2019-03-17T05:59:02.788Z,89.70
2019-03-17T06:01:31.595Z,89.40
2019-03-17T06:04:00.669Z,89.60
2019-03-17T06:06:29.451Z,89.70
2019-03-17T06:08:58.645Z,89.30
2019-03-17T06:11:27.431Z,89.50
2019-03-17T06:13:56.210Z,89.50
2019-03-17T06:16:24.988Z,89.60
2019-03-17T06:18:54.007Z,89.40
2019-03-17T06:21:22.715Z,89.50
2019-03-17T06:23:51.534Z,89.50
2019-03-17T06:26:20.585Z,89.40
2019-03-17T06:28:49.399Z,89.40
2019-03-17T06:31:18.206Z,89.60
2019-03-17T06:33:46.920Z,89.70
2019-03-17T06:36:15.772Z,89.50
2019-03-17T06:38:44.941Z,89.70
2019-03-17T06:41:14.044Z,89.80
2019-03-17T06:43:42.851Z,90.00
2019-03-17T06:46:11.911Z,90.10
2019-03-17T06:48:41.006Z,90.10
2019-03-17T06:51:10.216Z,90.10
2019-03-17T06:53:39.308Z,90.10
2019-03-17T06:56:08.500Z,90.00
2019-03-17T06:58:37.599Z,90.20
2019-03-17T07:01:06.315Z,90.00
2019-03-17T07:03:35.491Z,90.20
2019-03-17T07:06:04.585Z,90.20
2019-03-17T07:08:33.378Z,90.40
2019-03-17T07:11:02.212Z,90.40
2019-03-17T07:13:31.261Z,90.50
2019-03-17T07:16:00.353Z,90.30
2019-03-17T07:18:29.452Z,90.30
2019-03-17T07:20:58.539Z,90.30
2019-03-17T07:23:27.317Z,90.30
2019-03-17T07:25:56.427Z,90.20
2019-03-17T07:28:25.521Z,90.20
2019-03-17T07:30:54.610Z,90.00
2019-03-17T07:33:23.809Z,89.60
2019-03-17T07:35:52.595Z,89.10
2019-03-17T07:38:21.381Z,89.10
2019-03-17T07:40:50.595Z,87.90
2019-03-17T07:43:19.361Z,87.60
2019-03-17T07:45:48.478Z,88.10
2019-03-17T07:48:17.224Z,87.50
2019-03-17T07:50:45.994Z,87.10
2019-03-17T07:53:15.155Z,87.40
2019-03-17T07:55:44.248Z,87.20
2019-03-17T07:58:13.347Z,86.90
2019-03-17T08:00:42.445Z,87.20
2019-03-17T08:03:11.533Z,86.80
2019-03-17T08:05:40.274Z,86.20
2019-03-17T08:08:10.062Z,86.30
2019-03-17T08:10:39.544Z,86.00
2019-03-17T08:13:08.285Z,85.40
2019-03-17T08:15:37.427Z,85.90
2019-03-17T08:18:06.523Z,85.30
2019-03-17T08:20:35.359Z,84.20
2019-03-17T08:23:04.412Z,85.40
2019-03-17T08:25:33.124Z,82.60
2019-03-17T08:28:02.293Z,82.90
2019-03-17T08:30:31.402Z,82.60
2019-03-17T08:33:00.487Z,81.80
2019-03-17T08:35:29.686Z,81.00
2019-03-17T08:37:58.778Z,81.30
2019-03-17T08:40:27.531Z,82.10
2019-03-17T08:42:56.662Z,79.50
2019-03-17T08:45:25.455Z,81.50
2019-03-17T08:47:58.342Z,79.90
2019-03-17T08:50:24.626Z,80.50
2019-03-17T08:52:53.762Z,79.60
2019-03-17T08:55:22.860Z,77.70
2019-03-17T08:57:51.957Z,78.10
2019-03-17T09:00:22.251Z,77.20
2019-03-17T09:02:51.374Z,77.30
2019-03-17T09:05:20.468Z,76.60
2019-03-17T09:07:49.572Z,75.80
2019-03-17T09:10:18.296Z,73.30
2019-03-17T09:12:47.079Z,73.80
2019-03-17T09:15:15.905Z,70.70
2019-03-17T09:17:44.703Z,72.90
2019-03-17T09:20:14.739Z,68.60
2019-03-17T09:22:43.835Z,68.20
2019-03-17T09:25:12.982Z,66.50
2019-03-17T09:27:42.035Z,65.40
2019-03-17T09:30:16.069Z,68.80
2019-03-17T09:32:44.843Z,65.30
2019-03-17T09:35:13.936Z,65.00
2019-03-17T09:37:43.126Z,63.70
2019-03-17T09:40:14.280Z,63.40
2019-03-17T09:42:43.071Z,66.50
2019-03-17T09:45:14.412Z,64.00
2019-03-17T09:47:43.505Z,59.60
2019-03-17T09:50:15.264Z,60.40
2019-03-17T09:52:44.354Z,60.20
2019-03-17T09:55:13.459Z,60.90
2019-03-17T09:57:42.658Z,61.80
2019-03-17T10:00:22.813Z,63.40
2019-03-17T10:02:51.951Z,63.40
2019-03-17T10:05:20.741Z,62.30
2019-03-17T10:07:49.895Z,60.20
2019-03-17T10:10:23.555Z,63.10
2019-03-17T10:12:52.593Z,62.40
2019-03-17T10:15:22.681Z,59.80
2019-03-17T10:17:51.490Z,60.00
2019-03-17T10:20:21.013Z,59.80
2019-03-17T10:22:50.105Z,60.10
2019-03-17T10:25:18.978Z,59.60
2019-03-17T10:27:48.099Z,59.10
2019-03-17T10:30:21.393Z,59.70
2019-03-17T10:32:50.141Z,59.00
2019-03-17T10:35:19.175Z,58.80
2019-03-17T10:37:48.298Z,60.10
2019-03-17T10:40:19.011Z,59.40
2019-03-17T10:42:48.092Z,60.90
2019-03-17T10:45:17.191Z,59.70
2019-03-17T10:47:46.453Z,62.50
2019-03-17T10:50:17.436Z,63.60
2019-03-17T10:52:46.233Z,64.50
2019-03-17T10:55:15.354Z,62.60
2019-03-17T10:57:44.522Z,63.30
2019-03-17T11:00:20.810Z,61.90
2019-03-17T11:02:49.828Z,61.20
2019-03-17T11:05:18.882Z,60.70
2019-03-17T11:07:48.592Z,59.60
2019-03-17T11:10:17.679Z,58.90
2019-03-17T11:12:46.468Z,57.70
2019-03-17T11:15:16.838Z,58.70
2019-03-17T11:17:45.886Z,58.70
2019-03-17T11:20:15.287Z,56.50
2019-03-17T11:22:44.490Z,56.60
2019-03-17T11:25:15.232Z,56.40
2019-03-17T11:27:44.018Z,57.40
2019-03-17T11:30:20.692Z,58.90
2019-03-17T11:32:49.782Z,58.40
2019-03-17T11:35:18.500Z,60.00
2019-03-17T11:37:47.339Z,57.40
2019-03-17T11:40:21.688Z,57.80
2019-03-17T11:42:50.566Z,53.50
2019-03-17T11:45:19.476Z,52.90
2019-03-17T11:47:48.297Z,53.40
2019-03-17T11:50:20.444Z,53.10
2019-03-17T11:52:50.137Z,53.40
2019-03-17T11:55:19.014Z,52.60
2019-03-17T11:57:48.115Z,52.60
2019-03-17T12:00:22.160Z,54.30
2019-03-17T12:02:50.927Z,56.70
2019-03-17T12:05:20.021Z,60.40
2019-03-17T12:07:48.847Z,63.60
2019-03-17T12:10:24.714Z,67.10
2019-03-17T12:12:53.762Z,70.90
2019-03-17T12:15:31.048Z,71.30
2019-03-17T12:17:59.762Z,72.30
2019-03-17T12:20:28.940Z,72.20
2019-03-17T12:22:58.131Z,71.10
2019-03-17T12:25:27.228Z,69.00
2019-03-17T12:27:56.247Z,68.50
2019-03-17T12:30:27.269Z,68.60
2019-03-17T12:32:56.667Z,65.10
2019-03-17T12:35:25.500Z,62.40
2019-03-17T12:37:54.289Z,60.40
2019-03-17T12:40:23.348Z,61.30
2019-03-17T12:42:52.438Z,62.00
2019-03-17T12:45:21.222Z,62.30
2019-03-17T12:47:50.323Z,63.40
2019-03-17T12:50:21.361Z,62.80
2019-03-17T12:52:50.454Z,62.70
2019-03-17T12:55:19.297Z,62.70
2019-03-17T12:57:48.438Z,62.90
2019-03-17T13:00:24.751Z,61.20
2019-03-17T13:02:53.902Z,62.70
2019-03-17T13:05:22.699Z,64.70
2019-03-17T13:07:51.493Z,66.80
2019-03-17T13:10:22.208Z,70.60
2019-03-17T13:12:51.220Z,71.80
2019-03-17T13:15:20.316Z,69.30
2019-03-17T13:17:49.983Z,68.10
2019-03-17T13:20:20.579Z,64.70
2019-03-17T13:22:49.315Z,63.50
2019-03-17T13:25:18.539Z,62.90
2019-03-17T13:27:47.639Z,60.50
2019-03-17T13:30:17.655Z,62.00
2019-03-17T13:32:46.477Z,60.20
2019-03-17T13:35:15.262Z,59.40
2019-03-17T13:37:44.329Z,60.40
2019-03-17T13:40:23.765Z,60.00
2019-03-17T13:42:45.188Z,57.60
2019-03-17T13:45:14.693Z,58.40
2019-03-17T13:47:43.515Z,58.80
2019-03-17T13:50:20.459Z,62.00
2019-03-17T13:52:49.282Z,63.30
2019-03-17T13:55:18.448Z,64.00
2019-03-17T13:58:01.646Z,64.40
2019-03-17T14:00:30.363Z,65.20
2019-03-17T14:02:59.445Z,62.50
2019-03-17T14:05:28.211Z,62.10
2019-03-17T14:07:57.343Z,62.20
2019-03-17T14:10:26.127Z,61.00
2019-03-17T14:12:55.321Z,59.80
2019-03-17T14:15:24.424Z,58.70
2019-03-17T14:17:53.523Z,60.20
2019-03-17T14:20:22.754Z,60.50
2019-03-17T14:22:51.918Z,59.90
2019-03-17T14:25:31.864Z,58.70
2019-03-17T14:28:00.968Z,59.60
2019-03-17T14:30:30.068Z,60.60
2019-03-17T14:32:58.878Z,61.20
2019-03-17T14:35:28.045Z,61.10
2019-03-17T14:37:57.329Z,59.80
2019-03-17T14:40:26.122Z,59.40
2019-03-17T14:42:55.575Z,59.40
2019-03-17T14:45:25.267Z,58.60
2019-03-17T14:47:54.348Z,58.20
2019-03-17T14:50:26.309Z,58.80
2019-03-17T14:52:55.506Z,58.40
2019-03-17T14:55:24.228Z,58.10
2019-03-17T14:57:53.022Z,56.90
2019-03-17T15:00:23.713Z,57.20
2019-03-17T15:02:52.530Z,57.10
2019-03-17T15:05:21.319Z,57.80
2019-03-17T15:07:50.136Z,57.20
2019-03-17T15:10:26.037Z,57.10
2019-03-17T15:12:54.848Z,55.80
2019-03-17T15:15:23.939Z,58.30
2019-03-17T15:17:52.731Z,58.40
2019-03-17T15:20:26.431Z,59.40
2019-03-17T15:22:55.521Z,58.30
2019-03-17T15:25:24.311Z,57.60
2019-03-17T15:27:53.404Z,58.40
2019-03-17T15:30:27.519Z,58.00
2019-03-17T15:32:56.918Z,56.80
2019-03-17T15:35:26.026Z,56.70
2019-03-17T15:37:55.117Z,56.30
2019-03-17T15:40:24.210Z,56.80
2019-03-17T15:42:52.995Z,56.40
2019-03-17T15:45:23.430Z,56.50
2019-03-17T15:47:52.522Z,56.10
2019-03-17T15:50:25.921Z,56.70
2019-03-17T15:52:55.016Z,58.00
2019-03-17T15:55:23.779Z,59.50
2019-03-17T15:57:52.567Z,59.30
2019-03-17T16:00:26.709Z,59.20
2019-03-17T16:02:55.833Z,60.10
2019-03-17T16:05:24.895Z,62.00
2019-03-17T16:07:53.637Z,66.20
2019-03-17T16:10:24.672Z,69.60
2019-03-17T16:12:53.829Z,75.10
2019-03-17T16:15:23.027Z,75.40
2019-03-17T16:17:51.817Z,77.20
2019-03-17T16:20:25.587Z,77.90
2019-03-17T16:22:54.336Z,78.20
2019-03-17T16:25:31.295Z,79.00
2019-03-17T16:28:00.243Z,82.00
2019-03-17T16:30:33.251Z,79.00
2019-03-17T16:33:02.280Z,80.20
2019-03-17T16:35:31.461Z,81.10
2019-03-17T16:38:00.243Z,79.80
2019-03-17T16:40:30.978Z,80.20
2019-03-17T16:43:00.485Z,79.00
2019-03-17T16:45:29.606Z,78.90
2019-03-17T16:47:58.684Z,78.90
2019-03-17T16:50:27.502Z,77.00
2019-03-17T16:52:56.285Z,76.40
2019-03-17T16:55:25.360Z,77.70
2019-03-17T16:57:54.194Z,77.00
2019-03-17T17:00:26.603Z,76.40
2019-03-17T17:02:55.719Z,77.30
2019-03-17T17:05:26.250Z,77.50
2019-03-17T17:07:55.646Z,77.00
2019-03-17T17:10:31.106Z,77.40
2019-03-17T17:12:59.893Z,77.60
2019-03-17T17:15:32.902Z,77.90
2019-03-17T17:18:01.649Z,80.40
2019-03-17T17:20:33.185Z,80.60
2019-03-17T17:23:01.959Z,82.20
2019-03-17T17:25:31.102Z,82.50
2019-03-17T17:28:00.643Z,81.80
2019-03-17T17:30:30.007Z,81.80
2019-03-17T17:32:59.206Z,81.50
2019-03-17T17:35:28.121Z,80.00
2019-03-17T17:37:57.200Z,80.80
2019-03-17T17:40:27.221Z,81.10
2019-03-17T17:42:56.312Z,80.40
2019-03-17T17:45:26.945Z,79.80
2019-03-17T17:47:56.141Z,81.10
2019-03-17T17:50:26.511Z,80.90
2019-03-17T17:52:55.676Z,80.70
2019-03-17T17:55:24.456Z,81.50
2019-03-17T17:57:53.426Z,81.20
2019-03-17T18:00:23.977Z,80.10
2019-03-17T18:02:53.073Z,80.40
2019-03-17T18:05:22.022Z,80.90
2019-03-17T18:07:51.158Z,81.10
2019-03-17T18:10:20.370Z,80.80
2019-03-17T18:12:49.702Z,80.70
2019-03-17T18:15:23.449Z,80.40
2019-03-17T18:17:52.622Z,81.60
2019-03-17T18:20:21.662Z,80.60
2019-03-17T18:22:50.888Z,82.10
2019-03-17T18:25:22.650Z,82.60
2019-03-17T18:27:51.813Z,83.00
2019-03-17T18:30:24.491Z,83.70
2019-03-17T18:32:53.600Z,84.70
2019-03-17T18:35:22.816Z,84.80
2019-03-17T18:37:51.650Z,85.40
2019-03-17T18:40:24.062Z,84.20
2019-03-17T18:42:52.904Z,84.30
2019-03-17T18:45:30.826Z,84.90
2019-03-17T18:47:59.661Z,84.10
2019-03-17T18:50:28.744Z,85.00
2019-03-17T18:52:57.518Z,84.60
2019-03-17T18:55:26.641Z,84.30
2019-03-17T18:57:55.725Z,83.90
2019-03-17T19:00:25.976Z,83.90
2019-03-17T19:02:55.175Z,84.50
2019-03-17T19:05:23.968Z,82.60
2019-03-17T19:07:53.023Z,83.50
2019-03-17T19:10:22.138Z,82.70
2019-03-17T19:12:51.224Z,82.20
2019-03-17T19:15:24.575Z,82.20
2019-03-17T19:17:52.809Z,82.10
2019-03-17T19:20:22.814Z,82.90
2019-03-17T19:22:52.079Z,82.30
2019-03-17T19:25:22.102Z,82.80
2019-03-17T19:27:51.229Z,82.80
2019-03-17T19:30:21.774Z,82.00
2019-03-17T19:32:50.551Z,82.60
2019-03-17T19:35:19.526Z,82.50
2019-03-17T19:37:48.647Z,82.50
2019-03-17T19:40:22.655Z,81.90
2019-03-17T19:42:58.587Z,81.70
2019-03-17T19:45:22.481Z,81.90
2019-03-17T19:47:51.587Z,81.40
2019-03-17T19:50:23.769Z,81.20
2019-03-17T19:52:52.841Z,80.90
2019-03-17T19:55:21.938Z,80.20
2019-03-17T19:57:51.039Z,80.60
2019-03-17T20:00:22.493Z,79.60
2019-03-17T20:02:51.793Z,81.00
2019-03-17T20:05:20.608Z,79.30
2019-03-17T20:07:49.774Z,78.60
2019-03-17T20:10:32.693Z,79.30
2019-03-17T20:13:11.706Z,78.70
2019-03-17T20:15:32.626Z,78.80
2019-03-17T20:18:01.726Z,77.90
2019-03-17T20:20:30.822Z,79.00
2019-03-17T20:22:59.528Z,79.10
2019-03-17T20:25:28.716Z,78.80
2019-03-17T20:27:57.816Z,81.80
2019-03-17T20:30:26.897Z,82.50
2019-03-17T20:32:55.714Z,83.10
2019-03-17T20:35:24.894Z,83.20
2019-03-17T20:37:53.914Z,84.00
2019-03-17T20:40:23.100Z,84.70
2019-03-17T20:42:52.186Z,84.70
2019-03-17T20:45:20.959Z,86.00
2019-03-17T20:47:50.175Z,85.20
2019-03-17T20:50:20.389Z,84.60
2019-03-17T20:52:49.484Z,84.20
2019-03-17T20:55:18.288Z,84.10
2019-03-17T20:57:47.990Z,83.60
2019-03-17T21:00:18.025Z,84.70
2019-03-17T21:02:46.800Z,84.30
2019-03-17T21:05:16.205Z,84.70
2019-03-17T21:07:45.401Z,83.70
2019-03-17T21:10:17.538Z,84.10
2019-03-17T21:12:46.669Z,84.40
2019-03-17T21:15:18.995Z,83.90
2019-03-17T21:17:47.811Z,84.00
2019-03-17T21:20:18.535Z,84.30
2019-03-17T21:22:47.658Z,83.70
2019-03-17T21:25:16.866Z,85.10
2019-03-17T21:27:45.952Z,85.30
2019-03-17T21:30:27.098Z,85.10
2019-03-17T21:32:56.137Z,85.50
2019-03-17T21:35:25.330Z,85.70
2019-03-17T21:37:54.418Z,86.90
2019-03-17T21:40:23.546Z,86.30
2019-03-17T21:42:52.737Z,86.80
2019-03-17T21:45:21.434Z,87.30
2019-03-17T21:47:50.214Z,87.30
2019-03-17T21:50:21.240Z,87.00
2019-03-17T21:52:50.542Z,87.70
2019-03-17T21:55:19.356Z,87.30
2019-03-17T21:57:48.522Z,87.70
2019-03-17T22:00:19.202Z,86.20
2019-03-17T22:02:48.253Z,88.00
2019-03-17T22:05:17.767Z,86.10
2019-03-17T22:07:51.055Z,86.60
2019-03-17T22:10:21.446Z,86.60
2019-03-17T22:12:50.579Z,87.00
2019-03-17T22:15:19.684Z,86.90
2019-03-17T22:17:48.880Z,87.70
2019-03-17T22:20:17.697Z,87.30
2019-03-17T22:22:46.480Z,86.60
2019-03-17T22:25:16.310Z,86.80
2019-03-17T22:27:45.475Z,86.60
2019-03-17T22:30:19.231Z,86.90
2019-03-17T22:32:48.377Z,87.10
2019-03-17T22:35:17.473Z,87.20
2019-03-17T22:37:46.663Z,88.20
2019-03-17T22:40:16.790Z,88.00
2019-03-17T22:42:45.951Z,87.90
2019-03-17T22:45:16.825Z,87.60
2019-03-17T22:47:45.539Z,86.90
2019-03-17T22:50:16.750Z,86.90
2019-03-17T22:52:45.593Z,87.20
2019-03-17T22:55:14.880Z,87.20
2019-03-17T22:57:43.631Z,87.10
2019-03-17T23:00:22.062Z,87.20
2019-03-17T23:02:50.826Z,86.90
2019-03-17T23:05:20.033Z,86.70
2019-03-17T23:07:48.814Z,86.20
2019-03-17T23:10:17.836Z,86.80
2019-03-17T23:12:47.104Z,86.10
2019-03-17T23:15:15.909Z,86.70
2019-03-17T23:17:44.691Z,86.30
2019-03-17T23:20:17.051Z,86.50
2019-03-17T23:22:45.821Z,86.50
2019-03-17T23:25:14.952Z,86.00
2019-03-17T23:27:44.164Z,86.10
2019-03-17T23:30:17.769Z,86.40
2019-03-17T23:32:49.243Z,86.30
2019-03-17T23:35:17.696Z,86.50
2019-03-17T23:37:46.798Z,86.30
2019-03-17T23:40:16.881Z,86.20
2019-03-17T23:42:45.697Z,86.50
2019-03-17T23:45:14.903Z,86.10
2019-03-17T23:47:43.655Z,86.20
2019-03-17T23:50:16.205Z,86.10
2019-03-17T23:52:44.993Z,86.30
2019-03-17T23:55:17.018Z,86.30
2019-03-17T23:57:45.804Z,86.40
